Time;durP1;ratioP1;P1;durP2;ratioP2;P2;SDS_P1;SDS_P2;PMS_P1;PMS_P2;Temp;Humidity;BMP_temperature;BMP_pressure;BME280_temperature;BME280_humidity;BME280_pressure;Samples;Min_cycle;Max_cycle;Signal;HPM_P1;HPM_P2
2021/07/28 00:00:14;;;;;;;;;;;;;;;19.27;100.00;99210.17;1726201;83;20172;-69
2021/07/28 00:02:42;;;;;;;;;;;;;;;19.29;100.00;99211.22;1726162;83;21147;-69
2021/07/28 00:05:09;;;;;;;;;;;;;;;19.28;100.00;99210.42;1725968;83;20129;-69
2021/07/28 00:07:36;;;;;;;;;;;;;;;19.29;100.00;99207.14;1725998;83;20145;-70
2021/07/28 00:10:04;;;;;;;;;;;;;;;19.30;100.00;99206.01;1726069;83;20513;-70
2021/07/28 00:12:30;;;;;;;;;;;;;;;19.30;100.00;99217.45;1726562;83;20129;-69
2021/07/28 00:14:57;;;;;;;;;;;;;;;19.30;100.00;99218.25;1725872;83;22385;-70
2021/07/28 00:17:26;;;;;;;;;;;;;;;19.33;100.00;99216.81;1703341;83;20140;-69
2021/07/28 00:19:57;;;;;;;;;;;;;;;19.34;100.00;99211.62;1726151;83;20149;-70
2021/07/28 00:25:11;;;;;;;;;;;;;;;19.34;100.00;99208.34;1725903;83;20129;-70
2021/07/28 00:27:39;;;;;;;;;;;;;;;19.34;100.00;99221.94;1725651;83;21158;-69
2021/07/28 00:30:10;;;;;;;;;;;;;;;19.38;100.00;99235.16;1725292;83;20418;-70
2021/07/28 00:32:37;;;;;;;;;;;;;;;19.42;100.00;99229.86;1726225;83;20116;-70
2021/07/28 00:35:06;;;;;;;;;;;;;;;19.43;100.00;99224.11;1726053;83;20548;-69
2021/07/28 00:37:33;;;;;;;;;;;;;;;19.44;100.00;99222.98;1726066;83;20174;-69
2021/07/28 00:39:59;;;;;;;;;;;;;;;19.48;100.00;99217.71;1725800;83;22372;-70
2021/07/28 00:42:26;;;;;;;;;;;;;;;19.53;100.00;99220.27;1720722;82;20496;-69
2021/07/28 00:44:54;;;;;;;;;;;;;;;19.56;100.00;99210.66;1693571;83;20468;-70
2021/07/28 00:47:20;;;;;;;;;;;;;;;19.56;100.00;99215.53;1720580;83;20483;-70
2021/07/28 00:49:47;;;;;;;;;;;;;;;19.60;100.00;99217.03;1720586;83;20173;-70
2021/07/28 00:52:13;;;;;;;;;;;;;;;19.64;100.00;99219.36;1720568;83;21790;-70
2021/07/28 00:54:40;;;;;;;;;;;;;;;19.66;100.00;99221.21;1695318;83;20209;-70
2021/07/28 00:57:08;;;;;;;;;;;;;;;19.66;100.00;99221.21;1719100;83;20152;-70
2021/07/28 00:59:34;;;;;;;;;;;;;;;19.66;100.00;99211.68;1720512;83;20643;-70
2021/07/28 01:02:01;;;;;;;;;;;;;;;19.67;100.00;99207.31;1720054;83;20117;-69
2021/07/28 01:04:28;;;;;;;;;;;;;;;19.69;100.00;99215.94;1720874;83;21133;-70
2021/07/28 01:06:59;;;;;;;;;;;;;;;19.68;100.00;99218.44;1720062;83;20133;-71
2021/07/28 01:09:28;;;;;;;;;;;;;;;19.68;100.00;99219.00;1720475;83;20476;-70
2021/07/28 01:11:58;;;;;;;;;;;;;;;19.66;100.00;99220.64;1720044;83;20556;-70
2021/07/28 01:14:25;;;;;;;;;;;;;;;19.63;100.00;99215.84;1720822;83;20173;-70
2021/07/28 01:16:53;;;;;;;;;;;;;;;19.62;100.00;99207.99;1720607;83;21112;-70
2021/07/28 01:19:20;;;;;;;;;;;;;;;19.59;100.00;99207.28;1720021;83;20189;-70
2021/07/28 01:21:48;;;;;;;;;;;;;;;19.55;100.00;99220.75;1719561;83;20220;-71
2021/07/28 01:24:14;;;;;;;;;;;;;;;19.56;100.00;99220.98;1721217;83;20212;-71
2021/07/28 01:26:43;;;;;;;;;;;;;;;19.57;100.00;99224.49;1720735;83;20150;-70
2021/07/28 01:29:13;;;;;;;;;;;;;;;19.56;100.00;99212.02;1720448;83;21114;-70
2021/07/28 01:31:40;;;;;;;;;;;;;;;19.54;100.00;99215.05;1720548;83;20133;-70
2021/07/28 01:34:08;;;;;;;;;;;;;;;19.56;100.00;99210.66;1721015;83;20174;-70
2021/07/28 01:36:35;;;;;;;;;;;;;;;19.59;100.00;99216.81;1720828;83;20117;-69
2021/07/28 01:39:04;;;;;;;;;;;;;;;19.61;100.00;99214.58;1720710;83;20189;-70
2021/07/28 01:41:32;;;;;;;;;;;;;;;19.64;100.00;99212.56;1724221;81;21097;-71
2021/07/28 01:44:00;;;;;;;;;;;;;;;19.62;100.00;99213.44;1728808;83;20515;-72
2021/07/28 01:46:26;;;;;;;;;;;;;;;19.61;100.00;99215.94;1728764;83;20133;-71
2021/07/28 01:48:54;;;;;;;;;;;;;;;19.61;100.00;99209.13;1728801;83;20194;-69
2021/07/28 01:51:22;;;;;;;;;;;;;;;19.58;100.00;99209.21;1728848;83;20116;-70
2021/07/28 01:53:49;;;;;;;;;;;;;;;19.57;100.00;99213.04;1728890;83;21195;-70
2021/07/28 01:56:17;;;;;;;;;;;;;;;19.56;100.00;99214.73;1729150;83;20104;-70
2021/07/28 01:58:53;;;;;;;;;;;;;;;19.55;100.00;99226.73;1728864;83;20168;-68
2021/07/28 02:01:13;;;;;;;;;;;;;;;19.51;100.00;99225.80;1727932;83;20530;-67
2021/07/28 02:03:40;;;;;;;;;;;;;;;19.44;100.00;99221.62;1728976;83;20100;-68
2021/07/28 02:06:08;;;;;;;;;;;;;;;19.34;100.00;99219.79;1729196;83;21860;-67
2021/07/28 02:08:34;;;;;;;;;;;;;;;19.28;100.00;99208.27;1728902;83;20160;-66
2021/07/28 02:11:01;;;;;;;;;;;;;;;19.18;100.00;99209.92;1728652;83;20471;-67
2021/07/28 02:13:28;;;;;;;;;;;;;;;19.13;100.00;99212.80;1729020;83;20128;-68
2021/07/28 02:15:56;;;;;;;;;;;;;;;19.05;100.00;99207.59;1729280;83;20447;-67
2021/07/28 02:18:23;;;;;;;;;;;;;;;18.99;100.00;99216.48;1728832;83;21100;-67
2021/07/28 02:20:50;;;;;;;;;;;;;;;18.91;100.00;99209.09;1728936;83;20165;-68
2021/07/28 02:23:16;;;;;;;;;;;;;;;18.82;100.00;99211.81;1728867;83;20145;-67
2021/07/28 02:25:44;;;;;;;;;;;;;;;18.76;100.00;99213.63;1729152;83;20897;-67
2021/07/28 02:28:10;;;;;;;;;;;;;;;18.68;100.00;99209.73;1728850;83;20148;-67
2021/07/28 02:30:37;;;;;;;;;;;;;;;18.62;100.00;99215.89;1729195;83;21797;-67
2021/07/28 02:33:04;;;;;;;;;;;;;;;18.55;100.00;99211.47;1728903;83;20169;-67
2021/07/28 02:35:31;;;;;;;;;;;;;;;18.46;100.00;99204.40;1728877;83;20125;-67
2021/07/28 02:37:58;;;;;;;;;;;;;;;18.39;100.00;99208.36;1728881;83;20164;-66
2021/07/28 02:40:25;;;;;;;;;;;;;;;18.35;100.00;99202.53;1728799;83;20503;-68
2021/07/28 02:42:52;;;;;;;;;;;;;;;18.29;100.00;99214.08;1721486;82;21860;-67
2021/07/28 02:45:19;;;;;;;;;;;;;;;18.25;100.00;99216.37;1720926;83;20507;-67
2021/07/28 02:47:45;;;;;;;;;;;;;;;18.21;100.00;99208.05;1721024;83;20113;-68
2021/07/28 02:50:13;;;;;;;;;;;;;;;18.16;100.00;99208.20;1720966;83;20499;-68
2021/07/28 02:52:40;;;;;;;;;;;;;;;18.14;100.00;99204.42;1720305;83;20113;-67
2021/07/28 02:55:09;;;;;;;;;;;;;;;18.12;100.00;99199.85;1720732;83;21141;-68
2021/07/28 02:57:37;;;;;;;;;;;;;;;18.07;100.00;99200.55;1720982;83;20149;-67
2021/07/28 03:00:06;;;;;;;;;;;;;;;18.03;100.00;99199.03;1720689;83;20225;-67
2021/07/28 03:02:35;;;;;;;;;;;;;;;18.00;100.00;99197.71;1720729;83;20161;-67
2021/07/28 03:05:01;;;;;;;;;;;;;;;17.99;100.00;99196.69;1719878;83;20157;-67
2021/07/28 03:07:28;;;;;;;;;;;;;;;17.99;100.00;99202.91;1720185;83;21130;-67
2021/07/28 03:09:55;;;;;;;;;;;;;;;17.99;100.00;99205.63;1720460;83;38479;-67
2021/07/28 03:12:22;;;;;;;;;;;;;;;17.99;100.00;99204.83;1720825;83;20121;-67
2021/07/28 03:14:48;;;;;;;;;;;;;;;17.98;100.00;99205.39;1720498;83;20113;-68
2021/07/28 03:17:16;;;;;;;;;;;;;;;17.96;100.00;99204.10;1720126;83;20116;-67
2021/07/28 03:19:43;;;;;;;;;;;;;;;17.92;100.00;99202.55;1720718;83;21817;-67
2021/07/28 03:22:10;;;;;;;;;;;;;;;17.93;100.00;99208.77;1720069;83;20113;-67
2021/07/28 03:24:36;;;;;;;;;;;;;;;17.91;100.00;99217.81;1720777;83;20153;-67
2021/07/28 03:27:04;;;;;;;;;;;;;;;17.90;100.00;99215.63;1720960;83;20448;-67
2021/07/28 03:29:32;;;;;;;;;;;;;;;17.89;100.00;99214.59;1720650;83;20468;-67
2021/07/28 03:31:59;;;;;;;;;;;;;;;17.91;100.00;99217.81;1719775;83;21859;-66
2021/07/28 03:34:25;;;;;;;;;;;;;;;17.94;100.00;99226.69;1720358;83;20145;-67
2021/07/28 03:36:52;;;;;;;;;;;;;;;17.98;100.00;99220.86;1720657;83;20118;-67
2021/07/28 03:39:19;;;;;;;;;;;;;;;18.07;100.00;99227.15;1720122;83;20184;-67
2021/07/28 03:41:45;;;;;;;;;;;;;;;18.21;100.00;99231.94;1724731;82;20474;-66
2021/07/28 03:44:12;;;;;;;;;;;;;;;18.34;100.00;99251.17;1733779;83;21117;-66
2021/07/28 03:46:40;;;;;;;;;;;;;;;18.42;100.00;99249.88;1733792;83;20128;-67
2021/07/28 03:49:06;;;;;;;;;;;;;;;18.56;100.00;99253.82;1734001;82;20125;-67
2021/07/28 03:51:33;;;;;;;;;;;;;;;18.69;100.00;99252.67;1733854;83;20169;-68
2021/07/28 03:54:00;;;;;;;;;;;;;;;18.81;100.00;99250.17;1734048;82;20459;-67
2021/07/28 03:56:27;;;;;;;;;;;;;;;18.93;100.00;99251.72;1733911;83;21133;-67
2021/07/28 03:58:53;;;;;;;;;;;;;;;19.05;100.00;99245.11;1734129;82;20137;-67
2021/07/28 04:01:20;;;;;;;;;;;;;;;19.16;100.00;99249.70;1733709;83;20467;-67
2021/07/28 04:03:47;;;;;;;;;;;;;;;19.26;100.00;99255.41;1734066;82;20112;-67
2021/07/28 04:06:14;;;;;;;;;;;;;;;19.38;100.00;99251.48;1733882;83;20528;-67
2021/07/28 04:08:40;;;;;;;;;;;;;;;19.48;100.00;99253.89;1733708;83;21121;-66
2021/07/28 04:11:07;;;;;;;;;;;;;;;19.56;100.00;99252.28;1733773;83;20472;-67
2021/07/28 04:13:34;;;;;;;;;;;;;;;19.64;100.00;99250.11;1733705;83;20668;-67
2021/07/28 04:16:00;;;;;;;;;;;;;;;19.71;100.00;99252.38;1733951;83;20453;-67
2021/07/28 04:18:27;;;;;;;;;;;;;;;19.80;100.00;99257.83;1734156;82;20113;-66
2021/07/28 04:20:53;;;;;;;;;;;;;;;19.88;100.00;99259.17;1733787;83;20851;-66
2021/07/28 04:23:19;;;;;;;;;;;;;;;20.06;100.00;99261.86;1703020;82;20141;-67
2021/07/28 04:25:46;;;;;;;;;;;;;;;20.15;100.00;99257.20;1733673;83;20140;-67
2021/07/28 04:28:13;;;;;;;;;;;;;;;20.17;100.00;99259.61;1734072;82;20148;-66
2021/07/28 04:30:39;;;;;;;;;;;;;;;20.19;100.00;99270.42;1733516;83;20168;-68
2021/07/28 04:33:05;;;;;;;;;;;;;;;20.30;100.00;99266.77;1733978;82;21089;-67
2021/07/28 04:35:33;;;;;;;;;;;;;;;20.41;100.00;99259.85;1733650;83;20149;-67
2021/07/28 04:38:00;;;;;;;;;;;;;;;20.55;100.00;99252.83;1733768;83;20137;-66
2021/07/28 04:40:26;;;;;;;;;;;;;;;20.66;100.00;99257.38;1733770;83;20129;-67
2021/07/28 04:42:52;;;;;;;;;;;;;;;20.77;100.00;99259.95;1728026;82;20176;-66
2021/07/28 04:45:19;;;;;;;;;;;;;;;20.75;100.00;99262.23;1725460;83;20522;-67
2021/07/28 04:47:46;;;;;;;;;;;;;;;20.68;100.00;99264.10;1725705;83;20145;-67
2021/07/28 04:50:13;;;;;;;;;;;;;;;20.73;100.00;99264.48;1725591;83;20174;-67
2021/07/28 04:52:41;;;;;;;;;;;;;;;20.94;100.00;99263.95;1725554;83;20456;-67
2021/07/28 04:55:12;;;;;;;;;;;;;;;21.07;100.00;99264.86;1725490;83;20467;-67
2021/07/28 04:57:38;;;;;;;;;;;;;;;21.19;100.00;99269.58;1725762;83;21855;-65
2021/07/28 05:00:06;;;;;;;;;;;;;;;21.36;100.00;99266.75;1725501;83;20495;-66
2021/07/28 05:02:33;;;;;;;;;;;;;;;21.46;100.00;99262.85;1725497;83;20476;-66
2021/07/28 05:04:59;;;;;;;;;;;;;;;21.61;100.00;99259.50;1725419;83;20583;-65
2021/07/28 05:07:25;;;;;;;;;;;;;;;21.65;100.00;99262.35;1725404;83;20185;-68
2021/07/28 05:09:53;;;;;;;;;;;;;;;21.69;100.00;99266.59;1725303;83;21800;-67
2021/07/28 05:12:22;;;;;;;;;;;;;;;21.73;100.00;99263.41;1725295;83;20140;-67
2021/07/28 05:14:48;;;;;;;;;;;;;;;21.89;100.00;99260.86;1724692;83;20125;-66
2021/07/28 05:17:15;;;;;;;;;;;;;;;21.98;100.00;99255.55;1725252;83;20165;-66
2021/07/28 05:19:44;;;;;;;;;;;;;;;22.10;100.00;99263.53;1726164;83;20542;-67
2021/07/28 05:22:11;;;;;;;;;;;;;;;22.25;100.00;99263.73;1725490;83;21085;-66
2021/07/28 05:24:37;;;;;;;;;;;;;;;22.37;100.00;99260.23;1725690;83;20456;-67
2021/07/28 05:27:05;;;;;;;;;;;;;;;22.39;100.00;99261.23;1725591;83;20670;-66
2021/07/28 05:29:32;;;;;;;;;;;;;;;22.42;100.00;99260.00;1725623;83;20149;-67
2021/07/28 05:31:58;;;;;;;;;;;;;;;22.57;100.00;99265.95;1724402;83;20180;-66
2021/07/28 05:34:25;;;;;;;;;;;;;;;22.73;100.00;99258.64;1699489;83;21092;-68
2021/07/28 05:36:54;;;;;;;;;;;;;;;22.84;100.00;99263.89;1725797;83;20113;-68
2021/07/28 05:39:20;;;;;;;;;;;;;;;22.83;100.00;99271.89;1725603;83;20167;-66
2021/07/28 05:41:47;;;;;;;;;;;;;;;22.97;100.00;99264.67;1725251;83;20163;-67
2021/07/28 05:44:13;;;;;;;;;;;;;;;23.27;100.00;99262.52;1725698;83;20160;-67
2021/07/28 05:46:40;;;;;;;;;;;;;;;23.53;100.00;99263.45;1724018;83;21061;-67
2021/07/28 05:49:07;;;;;;;;;;;;;;;23.66;100.00;99257.35;1725704;83;20116;-69
2021/07/28 05:51:34;;;;;;;;;;;;;;;23.77;100.00;99259.65;1725721;83;20519;-69
2021/07/28 05:54:01;;;;;;;;;;;;;;;23.57;100.00;99259.46;1699742;83;20922;-68
2021/07/28 05:56:36;;;;;;;;;;;;;;;23.52;100.00;99261.87;1725730;83;20121;-67
2021/07/28 05:59:06;;;;;;;;;;;;;;;23.68;100.00;99260.55;1722913;83;21231;-67
2021/07/28 06:01:32;;;;;;;;;;;;;;;24.07;100.00;99252.63;1725605;83;20105;-67
2021/07/28 06:03:59;;;;;;;;;;;;;;;24.00;100.00;99262.61;1725993;83;20148;-67
2021/07/28 06:06:29;;;;;;;;;;;;;;;23.87;100.00;99264.05;1725608;83;20117;-67
2021/07/28 06:08:55;;;;;;;;;;;;;;;24.07;100.00;99258.70;1723594;83;20185;-67
2021/07/28 06:11:22;;;;;;;;;;;;;;;24.23;100.00;99253.22;1725921;83;22003;-67
2021/07/28 06:13:50;;;;;;;;;;;;;;;24.36;100.00;99258.86;1725953;83;20117;-68
2021/07/28 06:16:22;;;;;;;;;;;;;;;24.43;100.00;99254.14;1725233;83;20137;-67
2021/07/28 06:18:49;;;;;;;;;;;;;;;24.74;100.00;99252.78;1725283;83;20153;-68
2021/07/28 06:21:16;;;;;;;;;;;;;;;25.01;100.00;99263.41;1725741;83;20170;-67
2021/07/28 06:23:45;;;;;;;;;;;;;;;25.21;100.00;99264.27;1724964;83;20144;-68
2021/07/28 06:26:12;;;;;;;;;;;;;;;25.38;100.00;99263.07;1725487;83;20172;-68
2021/07/28 06:28:39;;;;;;;;;;;;;;;25.71;100.00;99259.60;1739786;81;20233;-68
2021/07/28 06:31:08;;;;;;;;;;;;;;;25.88;100.00;99261.94;1736014;81;20139;-67
2021/07/28 06:33:35;;;;;;;;;;;;;;;25.79;100.00;99255.83;1741889;81;20475;-67
2021/07/28 06:36:02;;;;;;;;;;;;;;;25.83;100.00;99264.95;1742384;81;21148;-67
2021/07/28 06:38:30;;;;;;;;;;;;;;;26.06;100.00;99263.63;1734510;81;20196;-69
2021/07/28 06:40:57;;;;;;;;;;;;;;;26.20;100.00;99265.86;1736064;81;20518;-68
2021/07/28 06:43:25;;;;;;;;;;;;;;;26.29;100.00;99262.30;1708098;81;20471;-68
2021/07/28 06:45:59;;;;;;;;;;;;;;;26.00;100.00;99260.98;1747900;81;20199;-68
2021/07/28 06:48:26;;;;;;;;;;;;;;;25.78;100.00;99255.04;1723813;83;21198;-68
2021/07/28 06:50:53;;;;;;;;;;;;;;;25.69;100.00;99254.45;1730052;83;20121;-67
2021/07/28 06:53:20;;;;;;;;;;;;;;;25.96;100.00;99254.02;1729929;83;20117;-68
2021/07/28 06:55:46;;;;;;;;;;;;;;;26.02;100.00;99256.70;1729870;83;20197;-70
2021/07/28 06:58:12;;;;;;;;;;;;;;;26.01;100.00;99251.56;1730349;82;20208;-70
2021/07/28 07:00:41;;;;;;;;;;;;;;;26.19;100.00;99260.13;1729612;82;22015;-68
2021/07/28 07:03:08;;;;;;;;;;;;;;;26.31;100.00;99257.20;1697431;83;20538;-69
2021/07/28 07:05:36;;;;;;;;;;;;;;;26.39;100.00;99254.02;1734461;81;20137;-68
2021/07/28 07:08:05;;;;;;;;;;;;;;;26.66;100.00;99259.80;1746163;81;20628;-67
2021/07/28 07:10:31;;;;;;;;;;;;;;;27.29;100.00;99262.52;1750163;81;20158;-68
2021/07/28 07:12:58;;;;;;;;;;;;;;;27.43;100.00;99266.03;1743763;81;21413;-67
2021/07/28 07:15:25;;;;;;;;;;;;;;;26.64;100.00;99256.61;1748377;81;20129;-68
2021/07/28 07:17:53;;;;;;;;;;;;;;;26.37;100.00;99251.63;1750819;81;20110;-67
2021/07/28 07:20:24;;;;;;;;;;;;;;;26.48;100.00;99256.73;1746275;81;20146;-70
2021/07/28 07:22:50;;;;;;;;;;;;;;;26.78;100.00;99258.80;1746494;81;20260;-69
2021/07/28 07:25:20;;;;;;;;;;;;;;;26.73;100.00;99258.53;1745292;81;21787;-65
2021/07/28 07:27:46;;;;;;;;;;;;;;;26.82;100.00;99261.02;1750180;81;20204;-68
2021/07/28 07:30:14;;;;;;;;;;;;;;;27.02;100.00;99263.11;1731555;81;20518;-68
2021/07/28 07:32:41;;;;;;;;;;;;;;;27.11;100.00;99262.82;1737400;81;20128;-66
2021/07/28 07:35:08;;;;;;;;;;;;;;;27.34;100.00;99262.75;1702629;83;20239;-70
2021/07/28 07:37:35;;;;;;;;;;;;;;;27.28;100.00;99258.75;1733195;83;21634;-68
2021/07/28 07:40:02;;;;;;;;;;;;;;;27.56;100.00;99261.88;1732978;83;20136;-70
2021/07/28 07:42:30;;;;;;;;;;;;;;;27.68;100.00;99262.80;1733221;82;20156;-69
2021/07/28 07:44:58;;;;;;;;;;;;;;;28.02;100.00;99267.73;1740143;81;20201;-68
2021/07/28 07:47:25;;;;;;;;;;;;;;;28.25;100.00;99262.63;1748299;81;20194;-68
2021/07/28 07:49:51;;;;;;;;;;;;;;;27.97;100.00;99268.86;1733847;81;21235;-70
2021/07/28 07:52:18;;;;;;;;;;;;;;;28.15;99.66;99266.31;1735004;81;20205;-67
2021/07/28 07:54:46;;;;;;;;;;;;;;;28.04;100.00;99266.77;1741211;81;20117;-69
2021/07/28 07:57:15;;;;;;;;;;;;;;;28.07;100.00;99268.77;1744277;81;20193;-70
2021/07/28 07:59:42;;;;;;;;;;;;;;;28.21;100.00;99262.02;1744353;81;20177;-68
2021/07/28 08:02:12;;;;;;;;;;;;;;;28.35;100.00;99266.89;1746782;81;21103;-69
2021/07/28 08:04:40;;;;;;;;;;;;;;;28.13;97.40;99267.86;1748865;81;20128;-69
2021/07/28 08:07:06;;;;;;;;;;;;;;;28.05;100.00;99270.31;1735887;81;20495;-68
2021/07/28 08:09:33;;;;;;;;;;;;;;;28.22;99.01;99280.73;1746453;81;20134;-67
2021/07/28 08:11:59;;;;;;;;;;;;;;;28.31;96.20;99277.69;1748470;81;20189;-70
2021/07/28 08:14:26;;;;;;;;;;;;;;;28.14;97.92;99279.88;1734597;81;21160;-69
2021/07/28 08:16:53;;;;;;;;;;;;;;;28.23;95.97;99275.45;1733331;82;20169;-70
2021/07/28 08:19:19;;;;;;;;;;;;;;;28.34;95.73;99274.94;1732628;83;20202;-67
2021/07/28 08:21:47;;;;;;;;;;;;;;;28.47;98.21;99270.55;1733402;83;20125;-70
2021/07/28 08:24:16;;;;;;;;;;;;;;;28.66;93.55;99279.19;1733431;83;20504;-69
2021/07/28 08:26:43;;;;;;;;;;;;;;;28.51;93.35;99280.45;1733320;82;21099;-69
2021/07/28 08:29:11;;;;;;;;;;;;;;;28.34;95.88;99277.70;1702202;83;20447;-69
2021/07/28 08:31:38;;;;;;;;;;;;;;;28.55;92.72;99284.64;1733230;82;20152;-70
2021/07/28 08:34:04;;;;;;;;;;;;;;;28.60;93.42;99284.28;1733315;83;20141;-70
2021/07/28 08:36:33;;;;;;;;;;;;;;;28.82;91.18;99276.37;1730624;82;20240;-68
2021/07/28 08:39:01;;;;;;;;;;;;;;;28.89;92.99;99276.23;1732757;83;20132;-69
2021/07/28 08:41:35;;;;;;;;;;;;;;;29.09;92.83;99271.25;1732114;83;20124;-73
2021/07/28 08:44:04;;;;;;;;;;;;;;;29.09;92.78;99276.19;1732512;82;20233;-70
2021/07/28 08:46:33;;;;;;;;;;;;;;;29.38;88.62;99277.73;1733179;83;20132;-68
2021/07/28 08:49:02;;;;;;;;;;;;;;;29.65;88.48;99277.66;1732756;83;20129;-71
2021/07/28 08:51:31;;;;;;;;;;;;;;;29.45;84.29;99279.94;1732656;83;20128;-72
2021/07/28 08:53:59;;;;;;;;;;;;;;;29.11;87.81;99275.22;1732578;83;20231;-76
2021/07/28 08:56:25;;;;;;;;;;;;;;;29.13;87.17;99270.10;1732733;83;20121;-70
2021/07/28 08:58:53;;;;;;;;;;;;;;;28.96;84.95;99265.23;1733126;83;20468;-72
2021/07/28 09:01:21;;;;;;;;;;;;;;;29.11;86.81;99264.76;1733295;83;20172;-70
2021/07/28 09:03:49;;;;;;;;;;;;;;;29.09;85.18;99265.73;1733147;83;22174;-68
2021/07/28 09:06:27;;;;;;;;;;;;;;;29.20;85.24;99272.09;1732964;83;20171;-70
2021/07/28 09:08:59;;;;;;;;;;;;;;;29.46;82.90;99277.96;1701941;81;20128;-70
2021/07/28 09:11:26;;;;;;;;;;;;;;;29.41;78.25;99269.45;1717106;81;20193;-70
2021/07/28 09:14:07;;;;;;;;;;;;;;;29.09;81.89;99271.25;1699155;81;20429;-71
2021/07/28 09:16:24;;;;;;;;;;;;;;;28.92;82.33;99269.34;1740036;81;20514;-71
2021/07/28 09:18:52;;;;;;;;;;;;;;;28.75;82.93;99272.17;1739524;81;20550;-69
2021/07/28 09:21:30;;;;;;;;;;;;;;;29.04;83.20;99271.78;1734169;81;20537;-72
2021/07/28 09:24:13;;;;;;;;;;;;;;;29.52;81.38;99275.61;1731888;83;20538;-68
2021/07/28 09:26:50;;;;;;;;;;;;;;;29.95;77.22;99276.59;1733272;83;20117;-70
2021/07/28 09:29:32;;;;;;;;;;;;;;;29.94;77.75;99278.35;1737290;81;21145;-70
2021/07/28 09:32:07;;;;;;;;;;;;;;;29.76;76.07;99275.55;1743204;81;20493;-69
2021/07/28 09:34:39;;;;;;;;;;;;;;;30.09;75.80;99271.69;1736598;81;20231;-70
2021/07/28 09:37:13;;;;;;;;;;;;;;;30.02;74.30;99273.84;1730697;81;20291;-75
2021/07/28 09:39:44;;;;;;;;;;;;;;;29.61;73.26;99268.54;1734527;81;20150;-71
2021/07/28 09:42:28;;;;;;;;;;;;;;;29.89;72.69;99262.36;1734067;81;21209;-72
2021/07/28 09:44:56;;;;;;;;;;;;;;;29.74;72.23;99264.08;1753267;80;20115;-70
2021/07/28 09:47:26;;;;;;;;;;;;;;;29.75;74.51;99263.70;1732353;81;20418;-69
2021/07/28 09:50:09;;;;;;;;;;;;;;;30.31;72.50;99260.88;1756046;81;20114;-70
2021/07/28 09:52:36;;;;;;;;;;;;;;;30.37;69.42;99264.03;1756140;81;20138;-71
2021/07/28 09:55:23;;;;;;;;;;;;;;;30.33;70.50;99264.64;1755844;81;21156;-70
2021/07/28 09:57:54;;;;;;;;;;;;;;;30.72;64.48;99256.91;1756427;81;20203;-71
2021/07/28 10:00:21;;;;;;;;;;;;;;;30.50;64.63;99274.12;1756302;81;20094;-69
2021/07/28 10:02:48;;;;;;;;;;;;;;;30.71;63.25;99263.64;1756168;81;20094;-74
2021/07/28 10:05:40;;;;;;;;;;;;;;;30.60;63.24;99261.46;1755993;81;20202;-75
2021/07/28 10:09:16;;;;;;;;;;;;;;;30.61;64.65;99260.30;1730523;81;20526;-69
2021/07/28 10:12:03;;;;;;;;;;;;;;;30.51;66.24;99260.48;1733323;81;20095;-70
2021/07/28 10:14:33;;;;;;;;;;;;;;;30.64;65.94;99258.11;1729434;81;20425;-73
2021/07/28 10:17:14;;;;;;;;;;;;;;;30.31;65.74;99253.95;1732165;81;20082;-73
2021/07/28 10:19:40;;;;;;;;;;;;;;;30.53;61.82;99249.22;1754266;81;20184;-71
2021/07/28 10:22:08;;;;;;;;;;;;;;;30.79;61.50;99257.50;1755308;81;21124;-71
2021/07/28 10:24:36;;;;;;;;;;;;;;;30.78;64.39;99250.39;1755883;81;20086;-66
2021/07/28 10:27:03;;;;;;;;;;;;;;;30.94;61.86;99254.92;1755661;81;20075;-70
2021/07/28 10:29:47;;;;;;;;;;;;;;;31.17;63.39;99250.34;1754425;81;20150;-73
2021/07/28 10:32:30;;;;;;;;;;;;;;;31.01;63.65;99254.91;1752469;81;20217;-74
2021/07/28 10:35:23;;;;;;;;;;;;;;;30.81;59.45;99258.69;1754982;81;20157;-70
2021/07/28 10:37:56;;;;;;;;;;;;;;;30.84;58.33;99249.60;1737973;81;20082;-74
2021/07/28 10:40:34;;;;;;;;;;;;;;;30.69;59.96;99257.70;1749678;81;20114;-74
2021/07/28 10:43:01;;;;;;;;;;;;;;;30.67;61.76;99249.81;1755804;81;20211;-74
2021/07/28 10:45:48;;;;;;;;;;;;;;;31.00;58.87;99247.02;1757879;81;20110;-73
2021/07/28 10:48:49;;;;;;;;;;;;;;;31.27;60.03;99248.73;1741487;81;22007;-70
2021/07/28 10:51:37;;;;;;;;;;;;;;;31.09;57.72;99245.41;1659774;86;20163;-71
2021/07/28 10:54:06;;;;;;;;;;;;;;;30.84;58.92;99249.60;1632665;86;20169;-71
2021/07/28 10:56:34;;;;;;;;;;;;;;;30.67;57.90;99251.77;1631747;88;20201;-71
2021/07/28 10:59:21;;;;;;;;;;;;;;;31.03;59.45;99245.61;1631638;88;20145;-73
2021/07/28 11:01:52;;;;;;;;;;;;;;;31.37;59.02;99247.29;1631162;88;21136;-72
2021/07/28 11:04:22;;;;;;;;;;;;;;;31.54;59.57;99243.50;1630490;88;20126;-74
2021/07/28 11:06:51;;;;;;;;;;;;;;;31.21;59.18;99233.69;1628714;86;20489;-71
2021/07/28 11:09:18;;;;;;;;;;;;;;;30.81;59.48;99237.91;1631939;88;20169;-69
2021/07/28 11:11:47;;;;;;;;;;;;;;;31.02;51.75;99239.10;1632963;88;20499;-67
2021/07/28 11:14:15;;;;;;;;;;;;;;;31.18;51.42;99243.59;1632792;86;22100;-71
2021/07/28 11:16:43;;;;;;;;;;;;;;;31.23;54.46;99232.69;1631886;88;20449;-68
2021/07/28 11:19:10;;;;;;;;;;;;;;;31.18;54.28;99233.89;1632279;86;20106;-69
2021/07/28 11:21:39;;;;;;;;;;;;;;;31.42;57.10;99238.41;1632310;88;20161;-70
2021/07/28 11:24:08;;;;;;;;;;;;;;;31.59;56.66;99234.75;1632701;86;20146;-67
2021/07/28 11:26:41;;;;;;;;;;;;;;;31.23;58.54;99229.92;1654654;84;21790;-68
2021/07/28 11:29:18;;;;;;;;;;;;;;;31.22;59.17;99233.30;1693367;84;20198;-70
2021/07/28 11:31:49;;;;;;;;;;;;;;;31.46;56.52;99233.04;1739921;81;20126;-66
2021/07/28 11:34:21;;;;;;;;;;;;;;;31.37;55.40;99229.88;1757766;81;20225;-66
2021/07/28 11:37:05;;;;;;;;;;;;;;;31.36;55.26;99226.31;1758032;81;20094;-71
2021/07/28 11:39:34;;;;;;;;;;;;;;;31.65;54.94;99231.73;1659365;85;21158;-69
2021/07/28 11:42:05;;;;;;;;;;;;;;;31.46;54.65;99223.94;1659473;86;20151;-69
2021/07/28 11:44:43;;;;;;;;;;;;;;;31.31;53.63;99218.98;1669507;85;20206;-71
2021/07/28 11:47:10;;;;;;;;;;;;;;;31.00;53.71;99212.38;1683423;85;20177;-70
2021/07/28 11:49:45;;;;;;;;;;;;;;;31.15;53.06;99220.84;1666834;84;20474;-71
2021/07/28 11:52:16;;;;;;;;;;;;;;;30.82;51.65;99216.53;1683572;85;21156;-70
2021/07/28 11:54:44;;;;;;;;;;;;;;;30.89;52.25;99217.36;1680120;84;20179;-69
2021/07/28 11:57:13;;;;;;;;;;;;;;;30.84;50.47;99210.81;1653474;86;20117;-71
2021/07/28 11:59:42;;;;;;;;;;;;;;;30.31;52.86;99208.28;1657248;85;20449;-70
2021/07/28 12:02:20;;;;;;;;;;;;;;;30.43;54.68;99208.48;1673501;85;20221;-70
2021/07/28 12:04:48;;;;;;;;;;;;;;;30.63;56.76;99204.70;1652493;85;20970;-69
2021/07/28 12:07:16;;;;;;;;;;;;;;;31.10;55.94;99204.02;1667969;85;20796;-68
2021/07/28 12:09:59;;;;;;;;;;;;;;;31.56;54.80;99205.84;1667790;85;20104;-73
2021/07/28 12:12:30;;;;;;;;;;;;;;;31.36;57.04;99204.13;1667810;85;20185;-70
2021/07/28 12:15:16;;;;;;;;;;;;;;;31.50;54.02;99211.61;1666531;85;20243;-71
2021/07/28 12:17:51;;;;;;;;;;;;;;;31.57;53.45;99203.86;1665348;85;21211;-70
2021/07/28 12:20:20;;;;;;;;;;;;;;;31.48;54.36;99200.73;1666130;85;20262;-72
2021/07/28 12:22:49;;;;;;;;;;;;;;;31.63;54.03;99202.83;1667934;85;20561;-67
2021/07/28 12:25:22;;;;;;;;;;;;;;;31.67;54.37;99196.67;1666650;85;20278;-72
2021/07/28 12:28:02;;;;;;;;;;;;;;;31.33;54.49;99204.13;1667770;85;20100;-67
2021/07/28 12:30:44;;;;;;;;;;;;;;;30.98;55.82;99205.24;1667252;85;21153;-69
2021/07/28 12:33:15;;;;;;;;;;;;;;;30.98;55.41;99204.45;1676105;81;20163;-69
2021/07/28 12:35:58;;;;;;;;;;;;;;;31.05;55.83;99202.27;1741436;81;20152;-71
2021/07/28 12:38:29;;;;;;;;;;;;;;;31.23;56.51;99193.87;1746308;81;20276;-73
2021/07/28 12:41:01;;;;;;;;;;;;;;;31.63;54.28;99195.32;1759030;80;20208;-68
2021/07/28 12:43:35;;;;;;;;;;;;;;;31.54;51.13;99189.42;1739504;81;21128;-71
2021/07/28 12:46:11;;;;;;;;;;;;;;;31.55;51.82;99188.21;1728756;81;20132;-72
2021/07/28 12:48:41;;;;;;;;;;;;;;;31.92;53.23;99186.22;1729743;82;20160;-71
2021/07/28 12:51:08;;;;;;;;;;;;;;;31.87;54.41;99183.06;1729092;82;20196;-70
2021/07/28 12:53:37;;;;;;;;;;;;;;;31.69;53.63;99179.81;1696569;82;20222;-73